LRTR/TSR METAR and TAF weather

Enter ICAO airport designator
Station Type Date Time Source
LRTR METAR 2020/01/24 09:30 UTC NOAA

LRTR 240930Z 08006KT 0300 R11/0600N R29/1100N FZFG OVC002 M02/M02 Q1030


Station Type Date Time Source
LRTR Decoded METAR 2020/01/24 09:30 UTC NOAA

Timisoara, Romania (LRTR) 45-46N 021-15E 88M
Jan 24, 2020 - 04:30 AM EST / 2020.01.24 0930 UTC
Wind: from the E (080 degrees) at 7 MPH (6 KT):0
Visibility: less than 1 mile:0
Sky conditions: overcast
Weather: freezing fog
Temperature: 28 F (-2 C)
Windchill: 21 F (-6 C):1
Dew Point: 28 F (-2 C)
Relative Humidity: 100%
Pressure (altimeter): 30.42 in. Hg (1030 hPa)
ob: LRTR 240930Z 08006KT 0300 R11/0600N R29/1100N FZFG OVC002 M02/M02 Q1030
cycle: 9

Station Type Date Time Source
LRTR TAF 2020/01/24 09:36 UTC NOAA

TAF
AMD TAF
AMD LRTR 240934Z 2409/2506 10006KT 0350 FZFG BKN002
BECMG 2409/2410 1500 BR BKN005
BECMG 2410/2411 CAVOK
BECMG 2421/2423 3000 BR
BECMG 2423/2501 0800 FZFG VV002
TEMPO 2501/2506 0350 FZFG VV001

Example: see airport list